Airfield :
LOGIN :

Register | Disclaimer

   EN    FR    IT 

 










Legend :    VFR   Marginal VFR   IFR   Intensive IFR   Very Intensive IFR
Visi :
Ceiling :
>= 8 km
>= 3000ft
5 to 8 km
1000 to 3000 ft
1500m to 5 km
500 to 1000 ft
800 to 1500m
200 to 500 ft
< 800m
< 200 ft
Symbols :   Thunderstorms  Fog  Heavy snow  Heavy precipitations  Wind > 20 kt
SIGMETs :     Misc.  Thunderstorms  Icing  Turbulence  Mountain Waves  Volcanic Ashes







- Airport Elevation : 187 ft


ETNW - Wunstorf AB

CURRENT METAR :
  • 201120Z 36004KT 9999 SCT026 22/15 Q1004 BLU+BLU

EXPIRED METARs :
  • 201020Z 31010KT 9999 FEW025 SCT240 21/15 Q1004 BLU+BLU
  • 200920Z 28009KT 9999 FEW024 BKN240 20/14 Q1004 BLU+BLU TEMPO YLO

TAF TAF ETNW
Valid from the 20 at 05:00 until the 21 at 05:00 UTC


200415Z 2005/2105 03004KT 9999 NSW FEW030 BKN120
TEMPO 2005/2008 VRB03KT 3000 MIFG BKN006
PROB30 2005/2006 VRB03KT 0500 FG BKN001
BECMG 2008/2010 35009KT 9999 NSW SCT010 BKN030
PROB30 2012/2105 VRB15G30KT 2000 TSRA BKN010CB BY ETGL
No reported NOTAMs for that airfield.
1 SIGMET reported for the Bremen FIR (EDWW) :
 
Frequent thunderstorms and hail
EDWW SIGMET 1 VALID 201211/201410 EDZF
EDWW BREMEN FIR FRQ TSGR FCST APRX 20NM WID LINE BTN N5137 E01012 - N5123 E01028 TOP FL350 MOV SSW 20KT NC=



MET'MAP, your aeronautical weather chart ! - Copyright ORBIFLY December 2007 - Disclaimer

ORBIFLY MET'MAP TEAM :

Programming & Development : Alexandra Zaïnal
Concept & Development : Baudouin d'Aumeries
Co-Development & Prog : Marc-Olivier Méhu
Technical & hardware support : Manuel Goepfert

Contact : metmap@orbifly.com




SOURCES & CREDITS :

   NOAA